The Internet Pinball Serial Number Database or IPSND collects serial numbers of pinball machines and publishes a database of these on the Internet. Our goal is to make available a registration of all pinball machines in existence and allow tools for slicing, dicing and visualization of the data.

Games: 6,217  Serials: 48,706  Visitors: 26,491,227  Members: 3,601  Photos: 25,775  Lat/Lng: 24,845  Masks: 48,706(783.43 %)  Traits: 500  Nudges: 131,207  Backglasses: 1,862
  Most Serials: Twilight Zone(1,015)  Most Submissions: Rod McLarge(3,264)  Most Points: Rod McLarge(27,988)  Highest Quality: Jim Butler(9.15)  Most Nudges: King of Pinball(17,637)
Submitter: John Duchi
Member Since: Thursday, February 7, 2008
Submissions: 139 (31st)
SerialBot: 562 Points Total (36th), 4.04 Average Score (4,067th)
Nudges: 0(0th)
DateGameSerialNumberGame PartSerialBotDetails
12
 Item 1 to 100 of 139
Page:of 2 Page size:
4/21/2008 Space Shuttle 53521749 Complete Game 53521749
3/29/2008 Twilight Zone 50420110212 Complete Game 50420110212
3/20/2008 The Shadow 51732104533 Complete Game 51732104533
3/20/2008 Johnny Mnemonic 53342100353 Complete Game 53342100353
3/20/2008 Star Trek: The Next Generation 53323307902 Complete Game 53323307902
3/2/2008 Cirqus Voltaire 53362401645 Complete Game 53362401645
3/2/2008 Junk Yard 53352102868 Complete Game 53352102868
3/2/2008 Twilight Zone 52920037792 Complete Game 52920037792
3/2/2008 Black Knight 2000 563241073 Complete Game 563241073
3/2/2008 Space Shuttle 53532907 Complete Game 53532907
3/2/2008 The Getaway: High Speed II 50004I095735 Complete Game 50004I095735
3/1/2008 The Simpsons 32928 Complete Game 32928
3/1/2008 Dirty Harry 51530111803 Complete Game 51530111803
3/1/2008 Breakshot 2002425 Complete Game 2002425
2/19/2008 Congo 53350102250 Complete Game 53350102250
2/19/2008 Twilight Zone 53320135132 Complete Game 53320135132
2/19/2008 Safe Cracker 93303101187 Complete Game 93303101187
2/19/2008 The Machine: Bride of Pin·bot 50002660042 Complete Game 50002660042
2/19/2008 Fish Tales 50005023122 Complete Game 50005023122
2/19/2008 Dirty Harry 53330113826 Complete Game 53330113826
2/19/2008 Star Trek: The Next Generation 53323330692 Complete Game 53323330692
2/19/2008 F-14 Tomcat 55494256 Complete Game 55494256
2/19/2008 Terminator 3: Rise of the Machines 173119 Complete Game 173119
2/7/2008 Theatre of Magic 51039101572 Other Parts 51039101572
2/7/2008 The Flintstones 51029101165 Other Parts 51029101165
2/7/2008 Doctor Who 22306813230 Other Parts 22306813230
2/7/2008 Fish Tales 50005I026594 Other Parts 50005I026594
2/7/2008 The Flintstones 51029102083 Other Parts 51029102083
2/7/2008 Twilight Zone 50720213771 Other Parts 50720213771
2/7/2008 World Cup Soccer 52531103447 Other Parts 52531103447
2/7/2008 The Flintstones 50329103792 Complete Game 50329103792
2/7/2008 The Sopranos® 190139 Complete Game 190139
2/7/2008 Theatre of Magic 53339100030 Complete Game 53339100030
2/7/2008 Monster Bash 53365400047 Complete Game 53365400047
1/22/2008 NBA Fastbreak 53953103338 Complete Game 53953103338
1/22/2008 Theatre of Magic 51039101394 Complete Game 51039101394
1/22/2008 The Flintstones 51029101155 Other Parts 51029101155
1/22/2008 World Cup Soccer 51031103515 Other Parts 51031103515
1/22/2008 The Getaway: High Speed II 50004I857421 Other Parts 50004I857421
1/22/2008 Twilight Zone 52020122761 Other Parts 52020122761
1/22/2008 Twilight Zone 52020120871 Complete Game 52020120871
1/15/2008 Playboy EPB15895 Complete Game EPB15895
1/9/2008 Popeye Saves the Earth 52122336212 Complete Game 52122336212
1/9/2008 Theatre of Magic 52339102930 Other Parts 52339102930
1/9/2008 Theatre of Magic 53339106684 Complete Game 53339106684
1/5/2008 Fire! 556115346 Complete Game 556115346
1/5/2008 Jokerz! 567190572 Other Parts 567190572
1/4/2008 The Simpsons Pinball Party 170674 Complete Game 170674
1/4/2008 135838 Other Parts 135838
1/4/2008 Apollo 13 126869 Complete Game 126869
1/2/2008 Demolition Man 53328499991 Complete Game 53328499991
1/2/2008 Star Trek: The Next Generation 50323446722 Other Parts 50323446722
1/2/2008 Bram Stoker's Dracula 51001057662 Other Parts 51001057662
1/2/2008 Judge Dredd 20320237482 Complete Game 20320237482
12/27/2007 Ripley's Believe It or Not!® 181693 Complete Game 181693
12/27/2007 Popeye Saves the Earth 53322353742 Complete Game 53322353742
12/27/2007 World Poker Tour™ 198735 Complete Game 198735
12/27/2007 Indianapolis 500 53326100443 Complete Game 53326100443
12/18/2007 Johnny Mnemonic 53342102362 Other Parts 53342102362
12/18/2007 Fish Tales 50005020752 Complete Game 50005020752
11/30/2007 Sorcerer 53252321 Other Parts 53252321
11/30/2007 Sorcerer 53255223 Complete Game 53255223
10/16/2007 Demolition Man 53328489831 Other Parts 53328489831
10/16/2007 Hurricane 50012831310 Other Parts 50012831310
10/14/2007 Indiana Jones: The Pinball Adventure 53317271871 Complete Game 53317271871
10/6/2007 High Speed 54181485 Other Parts 54181485
10/6/2007 Road Kings 54247746 Other Parts 54247746
10/6/2007 Space Shuttle 53521529 Other Parts 53521529
10/6/2007 Comet 54069411 Other Parts 54069411
10/5/2007 Comet 54066179 Complete Game 54066179
9/8/2007 Star Trek: The Next Generation 51023345542 Complete Game 51023345542
9/1/2007 Space Station 552125265 Other Parts 552125265
9/1/2007 Hyperball 549914 Other Parts 549914
9/1/2007 PIN·BOT 54902451 Other Parts 54902451
8/27/2007 PIN·BOT 54902293 Other Parts 54902293
8/27/2007 Sorcerer 53255297 Complete Game 53255297
8/27/2007 PIN·BOT 54906623 Other Parts 54906623
8/27/2007 High Speed 54189079 Other Parts 54189079
8/27/2007 Comet 54073204 Other Parts 54073204
8/17/2007 Jokerz! 567191691 Complete Game 567191691
7/28/2007 Space Station 552125240 Other Parts 552125240
7/28/2007 Space Station 552125281 Complete Game 552125281
7/28/2007 PIN·BOT 54911574 Other Parts 54911574
7/28/2007 PIN·BOT 54907441 Complete Game 54907441
7/28/2007 World Poker Tour™ 199371 Complete Game 199371
7/28/2007 Family Guy 207406 Complete Game 207406
7/22/2007 Terminator 2: Judgment Day 50013773361 Other Parts 50013773361
7/9/2007 Star Trek: The Next Generation 53323429111 Other Parts 53323429111
7/9/2007 White Water 50118929770 Other Parts 50118929770
7/9/2007 Red & Ted's Road Show 53324103927 Complete Game 53324103927
6/23/2007 Funhouse 50003I577545 Other Parts 50003I577545
6/17/2007 Dirty Harry 50330113371 Other Parts 50330113371
6/17/2007 Twilight Zone 51420041421 Other Parts 51420041421
6/17/2007 The Addams Family 20017I595956 Other Parts 20017I595956
6/17/2007 Fish Tales 50005I196155 Other Parts 50005I196155
6/17/2007 Fish Tales 50005I025859 Complete Game 50005I025859
6/7/2007 Dirty Harry 50330113397 Other Parts 50330113397
6/7/2007 No Fear: Dangerous Sports 52525101150 Complete Game 52525101150
5/18/2007 Cyclone 564144427 Other Parts 564144427
5/18/2007 Big Guns 557121996 Complete Game 557121996

Supported Browsers
Back 5 | Random | Forward 5 | List ]